Toyo Eagle — H3LY — position and weather

sailwx.info

Track history (hours):
 
Tides and Currents Weather Stations Pressure Air Temp Water Temp Dewpoint Dewpoint Depression Visibility Wind Speed Wind Dir Waves Ship Positions

Toyo Eagle

Last reported at 2015-May-21 18:33 UTC. Time now 2015-May-25 03:29 UTC.
Position N 01°54' E 102°22'.

Length 108 m; draft 5.1 m.

Type: Ship. MMSI: 355327000.

Date/timePositionNaut miles runAvg speedWind from/ knotsBaromVisibWave heightAir tempDewpointWater temp
2015-May-21 18:33N 01°54' E 102°22'1313.1
2015-May-21 17:33N 01°49' E 102°34'1212.3
2015-May-21 16:32N 01°44' E 102°46'69 5.6
2015-May-21 04:06N 01°09' E 103°46'712.1
2015-May-21 03:30N 01°12' E 103°52'1111.4
2015-May-21 02:33N 01°16' E 104°03'5 0.4
2015-May-20 15:33N 01°19' E 104°07'8 7.5
2015-May-20 14:32N 01°23' E 104°01'7 6.1
2015-May-20 13:25N 01°26' E 103°54'0 0.0
2015-May-20 12:19N 01°26' E 103°54'0 0.0
2015-May-20 10:19N 01°26' E 103°54'0 0.0
2015-May-20 08:19N 01°26' E 103°54'0 0.0
2015-May-20 04:19N 01°26' E 103°54'0 0.0
2015-May-20 03:19N 01°26' E 103°54'0 0.0
2015-May-20 00:25N 01°26' E 103°54'0 0.0
2015-May-19 20:31N 01°26' E 103°54'0 0.0
2015-May-19 17:13N 01°26' E 103°54'0 0.0
2015-May-19 16:31N 01°26' E 103°54'0 0.0
2015-May-19 14:25N 01°26' E 103°54'0 0.0
2015-May-19 10:07N 01°26' E 103°54'4 0.5
2015-May-19 01:31N 01°24' E 103°58'9 8.8
2015-May-19 00:31N 01°19' E 104°05'3 2.7
2015-May-18 23:27N 01°19' E 104°08'0 0.0
2015-May-18 14:18N 01°19' E 104°08'0 0.0
2015-May-18 12:30N 01°19' E 104°08'0 0.0
2015-May-18 10:30N 01°19' E 104°08'0 0.1
2015-May-18 09:24N 01°19' E 104°08'0 0.1
2015-May-18 08:12N 01°19' E 104°08'0 0.0
2015-May-18 01:12N 01°19' E 104°08'0 0.0
2015-May-18 00:12N 01°19' E 104°08'0 0.0
2015-May-17 23:21N 01°19' E 104°08'0 0.1
2015-May-17 22:30N 01°19' E 104°08'0 0.0
2015-May-17 15:33N 01°19' E 104°08'0 0.1
2015-May-17 14:24N 01°19' E 104°08'0 0.0
2015-May-17 13:18N 01°19' E 104°08'0 0.1
2015-May-17 12:26N 01°19' E 104°08'  
Track history (hours):
 
Tides and Currents Weather Stations Pressure Air Temp Water Temp Dewpoint Dewpoint Depression Visibility Wind Speed Wind Dir Waves Ship Positions

Toyo Eagle

Last reported at 2015-May-21 18:33 UTC. Time now 2015-May-25 03:29 UTC.
Position N 01°54' E 102°22'.

Length 108 m; draft 5.1 m.

Type: Ship. MMSI: 355327000.

Date/timePositionNaut miles runAvg speedWind from/ knotsBaromVisibWave heightAir tempDewpointWater temp
2015-May-21 18:33N 01°54' E 102°22'1313.1
2015-May-21 17:33N 01°49' E 102°34'1212.3
2015-May-21 16:32N 01°44' E 102°46'69 5.6
2015-May-21 04:06N 01°09' E 103°46'712.1
2015-May-21 03:30N 01°12' E 103°52'1111.4
2015-May-21 02:33N 01°16' E 104°03'5 0.4
2015-May-20 15:33N 01°19' E 104°07'8 7.5
2015-May-20 14:32N 01°23' E 104°01'7 6.1
2015-May-20 13:25N 01°26' E 103°54'0 0.0
2015-May-20 12:19N 01°26' E 103°54'0 0.0
2015-May-20 10:19N 01°26' E 103°54'0 0.0
2015-May-20 08:19N 01°26' E 103°54'0 0.0
2015-May-20 04:19N 01°26' E 103°54'0 0.0
2015-May-20 03:19N 01°26' E 103°54'0 0.0
2015-May-20 00:25N 01°26' E 103°54'0 0.0
2015-May-19 20:31N 01°26' E 103°54'0 0.0
2015-May-19 17:13N 01°26' E 103°54'0 0.0
2015-May-19 16:31N 01°26' E 103°54'0 0.0
2015-May-19 14:25N 01°26' E 103°54'0 0.0
2015-May-19 10:07N 01°26' E 103°54'4 0.5
2015-May-19 01:31N 01°24' E 103°58'9 8.8
2015-May-19 00:31N 01°19' E 104°05'3 2.7
2015-May-18 23:27N 01°19' E 104°08'0 0.0
2015-May-18 14:18N 01°19' E 104°08'0 0.0
2015-May-18 12:30N 01°19' E 104°08'0 0.0
2015-May-18 10:30N 01°19' E 104°08'0 0.1
2015-May-18 09:24N 01°19' E 104°08'0 0.1
2015-May-18 08:12N 01°19' E 104°08'0 0.0
2015-May-18 01:12N 01°19' E 104°08'0 0.0
2015-May-18 00:12N 01°19' E 104°08'0 0.0
2015-May-17 23:21N 01°19' E 104°08'0 0.1
2015-May-17 22:30N 01°19' E 104°08'0 0.0
2015-May-17 15:33N 01°19' E 104°08'0 0.1
2015-May-17 14:24N 01°19' E 104°08'0 0.0
2015-May-17 13:18N 01°19' E 104°08'0 0.1
2015-May-17 12:26N 01°19' E 104°08'  

Dump ship's entire track history